Time;durP1;ratioP1;P1;durP2;ratioP2;P2;SDS_P1;SDS_P2;PMS_P1;PMS_P2;Temp;Humidity;BMP_temperature;BMP_pressure;BME280_temperature;BME280_humidity;BME280_pressure;Samples;Min_cycle;Max_cycle;Signal;HPM_P1;HPM_P2
2021/05/25 00:27:35;;;;;;;28.55;17.40;;;15.20;99.90;;;;;;4824850;29;20038;-77
2021/05/25 00:30:01;;;;;;;29.90;17.25;;;15.10;99.90;;;;;;4808813;29;20053;-77
2021/05/25 00:32:27;;;;;;;34.30;18.73;;;15.10;99.90;;;;;;4825175;29;20026;-77
2021/05/25 00:34:53;;;;;;;30.45;18.17;;;15.10;99.90;;;;;;4824785;29;20504;-77
2021/05/25 00:37:19;;;;;;;31.80;17.85;;;15.10;99.90;;;;;;4824978;29;20111;-77
2021/05/25 00:39:44;;;;;;;27.60;17.40;;;15.10;99.90;;;;;;4824988;29;20031;-77
2021/05/25 00:42:10;;;;;;;28.48;17.80;;;15.10;99.90;;;;;;4824846;29;20031;-77
2021/05/25 00:44:36;;;;;;;32.65;16.80;;;15.20;99.90;;;;;;4824718;29;20473;-77
2021/05/25 00:47:02;;;;;;;26.85;17.10;;;15.10;99.90;;;;;;4825014;29;20107;-77
2021/05/25 00:49:27;;;;;;;27.73;17.38;;;15.20;99.90;;;;;;4808386;29;20520;-77
2021/05/25 00:51:53;;;;;;;27.65;17.70;;;15.20;99.90;;;;;;4808437;29;20454;-77
2021/05/25 00:54:19;;;;;;;26.00;17.38;;;15.20;99.90;;;;;;4824906;29;20447;-77
2021/05/25 00:56:45;;;;;;;27.63;17.73;;;15.20;99.90;;;;;;4824390;29;20026;-77
2021/05/25 00:59:10;;;;;;;28.27;17.35;;;15.20;99.90;;;;;;4824791;29;20401;-77
2021/05/25 01:01:37;;;;;;;27.98;18.60;;;15.20;99.90;;;;;;4808286;29;20083;-77
2021/05/25 01:04:04;;;;;;;29.33;18.23;;;15.20;99.90;;;;;;4824392;29;20386;-77
2021/05/25 01:06:30;;;;;;;27.75;17.65;;;15.20;99.90;;;;;;4824511;29;20027;-77
2021/05/25 01:09:00;;;;;;;30.75;17.27;;;15.20;99.90;;;;;;4824489;29;20037;-77
2021/05/25 01:11:32;;;;;;;29.88;17.27;;;15.20;99.90;;;;;;4824401;29;20060;-77
2021/05/25 01:13:59;;;;;;;;;;;15.20;99.90;;;;;;4808622;29;20034;-77
2021/05/25 01:16:29;;;;;;;30.10;17.42;;;15.20;99.90;;;;;;4824211;29;20003;-77
2021/05/25 01:18:56;;;;;;;27.42;16.45;;;15.20;99.90;;;;;;4824322;29;20478;-77
2021/05/25 01:21:23;;;;;;;26.13;16.20;;;15.20;99.90;;;;;;4824167;29;20125;-77
2021/05/25 01:23:49;;;;;;;28.60;17.15;;;15.20;99.90;;;;;;4824213;29;20041;-77
2021/05/25 01:26:16;;;;;;;28.13;17.63;;;15.10;99.90;;;;;;4824101;29;20035;-77
2021/05/25 01:28:44;;;;;;;27.17;16.92;;;15.10;99.90;;;;;;4824089;29;20022;-77
2021/05/25 01:31:10;;;;;;;27.63;15.55;;;15.10;99.90;;;;;;4824074;29;20027;-77
2021/05/25 01:33:37;;;;;;;31.30;16.38;;;15.10;99.90;;;;;;4824292;29;20042;-77
2021/05/25 01:36:04;;;;;;;32.13;16.35;;;15.10;99.90;;;;;;4807423;29;20151;-77
2021/05/25 01:38:30;;;;;;;30.05;16.08;;;15.10;99.90;;;;;;4823910;29;20026;-77
2021/05/25 01:40:57;;;;;;;32.13;16.70;;;15.10;99.90;;;;;;4824043;29;20041;-77
2021/05/25 01:43:24;;;;;;;26.92;15.30;;;15.10;99.90;;;;;;4823890;29;20023;-77
2021/05/25 01:45:50;;;;;;;31.70;16.95;;;15.10;99.90;;;;;;4807247;29;20344;-77
2021/05/25 01:48:16;;;;;;;33.03;17.08;;;15.20;99.90;;;;;;4824011;29;20027;-77
2021/05/25 02:31:08;;;;;;;26.88;15.40;;;15.00;99.90;;;;;;4823326;29;20037;-77
2021/05/25 02:33:34;;;;;;;23.45;14.85;;;15.00;99.90;;;;;;4823363;29;20034;-78
2021/05/25 02:36:01;;;;;;;26.55;15.77;;;14.90;99.90;;;;;;4823215;29;20023;-78
2021/05/25 02:38:29;;;;;;;25.38;14.73;;;14.90;99.90;;;;;;4823109;29;20034;-77
2021/05/25 02:40:55;;;;;;;28.00;16.40;;;14.90;99.90;;;;;;4823028;29;20038;-77
2021/05/25 02:43:23;;;;;;;28.63;16.10;;;14.80;99.90;;;;;;4806709;29;20478;-77
2021/05/25 02:45:50;;;;;;;26.15;15.55;;;14.90;99.90;;;;;;4823145;29;20023;-77
2021/05/25 02:48:17;;;;;;;24.88;15.38;;;14.90;99.90;;;;;;4806544;29;20340;-78
2021/05/25 02:50:43;;;;;;;27.38;15.90;;;14.90;99.90;;;;;;4822823;29;20046;-78
2021/05/25 02:53:09;;;;;;;25.63;15.40;;;14.90;99.90;;;;;;4823004;29;20038;-78
2021/05/25 02:55:37;;;;;;;26.65;16.30;;;14.90;99.90;;;;;;4822789;29;20118;-78
2021/05/25 02:58:05;;;;;;;29.73;17.30;;;15.00;99.90;;;;;;4806234;29;20121;-77
2021/05/25 03:00:40;;;;;;;28.27;16.67;;;14.90;99.90;;;;;;4822969;29;20034;-77
2021/05/25 03:03:07;;;;;;;24.77;15.85;;;14.90;99.90;;;;;;4822915;29;20127;-77
2021/05/25 03:05:34;;;;;;;24.20;14.52;;;14.90;99.90;;;;;;4805546;29;20092;-77
2021/05/25 03:08:01;;;;;;;22.70;14.57;;;14.80;99.90;;;;;;4822832;29;20050;-77
2021/05/25 03:10:30;;;;;;;21.13;13.25;;;14.80;99.90;;;;;;4822575;29;20043;-77
2021/05/25 03:12:56;;;;;;;24.90;14.90;;;14.80;99.90;;;;;;4822736;29;20516;-77
2021/05/25 03:15:26;;;;;;;19.55;13.57;;;14.70;99.90;;;;;;4822386;29;20031;-77
2021/05/25 03:17:52;;;;;;;22.13;13.55;;;14.70;99.90;;;;;;4822917;29;20023;-77
2021/05/25 03:20:19;;;;;;;23.15;14.55;;;14.60;99.90;;;;;;4822510;29;20366;-77
2021/05/25 03:22:45;;;;;;;24.58;15.38;;;14.70;99.90;;;;;;4822526;29;20039;-78
2021/05/25 03:25:12;;;;;;;24.35;15.48;;;14.70;99.90;;;;;;4822497;29;20035;-77
2021/05/25 03:27:39;;;;;;;25.98;15.80;;;14.60;99.90;;;;;;4806287;29;20053;-77
2021/05/25 03:30:08;;;;;;;23.73;15.48;;;14.60;99.90;;;;;;4806101;29;20126;-78
2021/05/25 03:32:34;;;;;;;23.75;14.98;;;14.70;99.90;;;;;;4806378;29;20608;-78
2021/05/25 03:35:00;;;;;;;25.17;15.70;;;14.70;99.90;;;;;;4822885;29;20034;-78
2021/05/25 03:37:26;;;;;;;24.40;14.80;;;14.70;99.90;;;;;;4815865;29;20134;-77
2021/05/25 03:39:51;;;;;;;22.58;14.63;;;14.70;99.90;;;;;;4806848;29;20026;-77
2021/05/25 03:42:17;;;;;;;22.05;14.00;;;14.70;99.90;;;;;;4823101;29;20037;-77
2021/05/25 03:44:44;;;;;;;23.55;14.60;;;14.70;99.90;;;;;;4806490;29;20066;-78
2021/05/25 03:47:10;;;;;;;30.13;14.32;;;14.70;99.90;;;;;;4822840;29;20318;-78
2021/05/25 03:49:35;;;;;;;24.17;14.45;;;14.70;99.90;;;;;;4822271;29;20078;-78
2021/05/25 03:52:01;;;;;;;25.83;15.82;;;14.70;99.90;;;;;;4822385;29;20485;-77
2021/05/25 03:54:37;;;;;;;24.35;14.88;;;14.70;99.90;;;;;;4822202;29;20038;-78
2021/05/25 03:59:32;;;;;;;32.17;18.45;;;14.80;99.90;;;;;;4822264;29;20117;-78
2021/05/25 04:01:58;;;;;;;33.83;20.35;;;14.80;99.90;;;;;;4805777;29;20104;-78
2021/05/25 04:04:24;;;;;;;36.00;19.90;;;14.60;99.90;;;;;;4805881;29;20489;-78
2021/05/25 04:06:50;;;;;;;40.92;20.83;;;14.60;99.90;;;;;;4822184;29;20037;-78
2021/05/25 04:09:15;;;;;;;42.35;22.33;;;14.60;99.90;;;;;;4822182;29;20407;-78
2021/05/25 04:11:41;;;;;;;40.28;21.60;;;14.70;99.90;;;;;;4822118;29;20034;-78
2021/05/25 04:14:07;;;;;;;34.97;21.40;;;14.70;99.90;;;;;;4822120;29;20031;-78
2021/05/25 04:16:33;;;;;;;39.17;20.83;;;14.70;99.90;;;;;;4823823;29;20214;-78
2021/05/25 04:18:59;;;;;;;45.05;22.40;;;14.70;99.90;;;;;;4825342;29;20203;-78
2021/05/25 04:21:25;;;;;;;38.70;21.15;;;14.70;99.90;;;;;;4825372;29;20121;-78
2021/05/25 04:23:51;;;;;;;41.20;21.77;;;14.70;99.90;;;;;;4825071;29;20041;-78
2021/05/25 04:26:17;;;;;;;41.53;22.98;;;14.70;99.90;;;;;;4825188;29;20033;-78
2021/05/25 04:28:42;;;;;;;39.75;22.20;;;14.80;99.90;;;;;;4825115;29;20026;-77
2021/05/25 04:31:08;;;;;;;40.03;21.42;;;14.80;99.90;;;;;;4825070;29;20075;-78
2021/05/25 04:33:34;;;;;;;40.33;22.27;;;14.80;99.90;;;;;;4825011;29;20034;-78
2021/05/25 04:35:59;;;;;;;38.00;22.25;;;14.80;99.90;;;;;;4809452;29;20058;-78
2021/05/25 04:38:25;;;;;;;38.92;22.40;;;14.90;99.90;;;;;;4807033;29;20059;-78
2021/05/25 04:40:51;;;;;;;42.15;22.95;;;14.90;99.90;;;;;;4815533;29;20125;-78
2021/05/25 04:43:17;;;;;;;47.90;23.65;;;14.80;99.90;;;;;;4824985;29;20092;-78
2021/05/25 04:45:44;;;;;;;42.63;23.02;;;14.90;99.90;;;;;;4824652;29;20031;-78
2021/05/25 04:48:10;;;;;;;42.63;23.10;;;14.90;99.90;;;;;;4825078;29;20099;-78
2021/05/25 04:50:37;;;;;;;42.25;23.58;;;14.90;99.90;;;;;;4824597;29;20146;-78
2021/05/25 04:53:03;;;;;;;42.83;22.48;;;14.90;99.90;;;;;;4824866;29;20018;-78
2021/05/25 04:55:29;;;;;;;42.53;23.50;;;15.00;99.90;;;;;;4824751;29;20041;-78
2021/05/25 04:57:55;;;;;;;40.60;22.20;;;15.00;99.90;;;;;;4823010;29;20057;-78
2021/05/25 05:00:26;;;;;;;44.05;23.88;;;15.00;99.90;;;;;;4823496;29;20075;-78
2021/05/25 05:02:54;;;;;;;42.83;22.63;;;15.00;99.90;;;;;;4824165;29;20058;-78
2021/05/25 05:05:21;;;;;;;42.15;24.20;;;15.00;99.90;;;;;;4824469;29;20030;-78
2021/05/25 05:07:47;;;;;;;45.30;24.35;;;15.00;99.90;;;;;;4824668;29;20097;-78
2021/05/25 05:10:14;;;;;;;43.55;24.77;;;15.10;99.90;;;;;;4824352;29;20038;-78
2021/05/25 05:12:40;;;;;;;40.05;22.83;;;15.10;99.90;;;;;;4824540;29;20061;-78
2021/05/25 05:15:06;;;;;;;45.00;23.92;;;15.00;99.90;;;;;;4824233;29;20042;-78
2021/05/25 05:17:33;;;;;;;40.67;24.52;;;14.90;99.90;;;;;;4824374;29;20042;-78
2021/05/25 05:19:59;;;;;;;44.47;24.98;;;14.90;99.90;;;;;;4824281;29;20038;-78
2021/05/25 05:22:25;;;;;;;46.47;25.65;;;14.80;99.90;;;;;;4823893;29;20445;-78
2021/05/25 05:24:51;;;;;;;48.97;26.00;;;14.90;99.90;;;;;;4806306;29;20041;-78
2021/05/25 05:27:17;;;;;;;45.33;24.80;;;15.00;99.90;;;;;;4821734;29;20022;-78
2021/05/25 05:29:43;;;;;;;51.50;27.30;;;14.90;99.90;;;;;;4822216;29;20113;-78
2021/05/25 05:32:09;;;;;;;47.05;25.17;;;14.90;99.90;;;;;;4822233;29;20080;-78
2021/05/25 05:34:35;;;;;;;46.97;26.05;;;15.00;99.90;;;;;;4822314;29;20037;-78
2021/05/25 05:37:02;;;;;;;48.63;26.13;;;15.00;99.90;;;;;;4805763;29;20042;-78
2021/05/25 05:39:28;;;;;;;46.25;24.85;;;15.10;99.90;;;;;;4822142;29;20512;-78
2021/05/25 05:41:53;;;;;;;47.10;26.38;;;15.10;99.90;;;;;;4823933;29;20033;-78
2021/05/25 05:44:19;;;;;;;47.05;25.45;;;15.10;99.90;;;;;;4807504;29;20030;-78
2021/05/25 05:46:45;;;;;;;45.17;24.63;;;15.10;99.90;;;;;;4823884;29;20440;-78
2021/05/25 05:49:10;;;;;;;49.05;26.60;;;15.20;99.90;;;;;;4823929;29;20023;-78
2021/05/25 05:51:36;;;;;;;50.55;26.83;;;15.20;99.90;;;;;;4823719;29;20034;-78
2021/05/25 05:54:02;;;;;;;46.05;24.20;;;15.30;99.90;;;;;;4807208;29;20041;-78
2021/05/25 05:56:28;;;;;;;42.78;23.23;;;15.30;99.90;;;;;;4823867;29;20504;-78
2021/05/25 05:58:54;;;;;;;45.35;24.10;;;15.40;99.90;;;;;;4823551;29;20026;-78
2021/05/25 06:01:20;;;;;;;45.85;24.65;;;15.40;99.90;;;;;;4807311;29;20390;-78
2021/05/25 06:03:46;;;;;;;46.00;25.35;;;15.40;99.90;;;;;;4823724;29;20430;-78
2021/05/25 06:06:13;;;;;;;46.20;25.55;;;15.50;99.90;;;;;;4823678;29;20486;-77
2021/05/25 06:08:42;;;;;;;52.03;27.60;;;15.50;99.90;;;;;;4806924;29;20401;-78
2021/05/25 06:11:09;;;;;;;45.72;24.50;;;15.50;99.90;;;;;;4823508;29;20474;-78
2021/05/25 06:13:35;;;;;;;45.03;25.45;;;15.50;99.90;;;;;;4823445;29;20033;-77
2021/05/25 06:16:02;;;;;;;46.17;24.33;;;15.50;99.90;;;;;;4823511;29;20034;-78
2021/05/25 06:18:33;;;;;;;44.53;25.52;;;15.50;99.90;;;;;;4807032;29;20030;-77
2021/05/25 06:21:01;;;;;;;41.65;24.55;;;15.40;99.90;;;;;;4823530;29;20493;-77
2021/05/25 06:23:27;;;;;;;48.83;25.80;;;15.50;99.90;;;;;;4823382;29;20121;-77
2021/05/25 06:25:53;;;;;;;44.60;25.70;;;15.50;99.90;;;;;;4806770;29;20030;-77
2021/05/25 06:28:19;;;;;;;51.28;26.23;;;15.40;99.90;;;;;;4823559;29;20030;-77
2021/05/25 06:30:45;;;;;;;48.08;25.75;;;15.50;99.90;;;;;;4823472;29;20087;-77
2021/05/25 06:33:10;;;;;;;44.25;25.55;;;15.50;99.90;;;;;;4823455;29;20478;-77
2021/05/25 06:35:37;;;;;;;45.30;25.17;;;15.60;99.90;;;;;;4820237;29;20053;-77
2021/05/25 06:38:03;;;;;;;50.97;24.92;;;15.60;99.90;;;;;;4822986;29;20521;-77
2021/05/25 06:40:29;;;;;;;41.65;23.02;;;15.70;99.90;;;;;;4823310;29;20032;-77
2021/05/25 06:42:55;;;;;;;37.08;20.98;;;15.60;99.90;;;;;;4823037;29;20025;-77
2021/05/25 06:45:21;;;;;;;40.92;23.15;;;15.70;99.90;;;;;;4823191;29;20030;-77
2021/05/25 06:47:48;;;;;;;41.40;23.25;;;15.70;99.90;;;;;;4823030;29;20508;-77
2021/05/25 06:50:14;;;;;;;40.97;22.42;;;15.70;99.90;;;;;;4823083;29;20493;-77
2021/05/25 06:52:41;;;;;;;40.88;22.77;;;15.70;99.90;;;;;;4806587;29;20023;-77
2021/05/25 06:55:09;;;;;;;49.28;25.85;;;15.80;99.90;;;;;;4823002;29;20422;-77
2021/05/25 06:57:35;;;;;;;45.38;23.63;;;15.90;99.90;;;;;;4823138;29;20030;-78
2021/05/25 07:00:01;;;;;;;42.88;22.42;;;16.00;99.90;;;;;;4823216;29;20034;-77
2021/05/25 07:02:26;;;;;;;40.00;22.63;;;16.00;99.90;;;;;;4823078;29;20482;-77
2021/05/25 07:04:54;;;;;;;42.95;22.77;;;16.10;99.90;;;;;;4823057;29;20031;-77
2021/05/25 07:07:20;;;;;;;39.03;21.80;;;16.10;99.90;;;;;;4823147;29;20029;-78
2021/05/25 07:09:46;;;;;;;37.05;22.08;;;16.10;99.90;;;;;;4806367;29;20070;-77
2021/05/25 07:12:12;;;;;;;38.45;21.05;;;16.00;99.90;;;;;;4806562;29;20069;-77
2021/05/25 07:14:38;;;;;;;40.47;23.00;;;16.10;99.90;;;;;;4822752;29;20034;-77
2021/05/25 07:17:04;;;;;;;48.15;25.52;;;16.10;99.90;;;;;;4823280;29;20034;-77
2021/05/25 07:19:30;;;;;;;43.40;23.45;;;16.20;99.90;;;;;;4823332;29;20031;-77
2021/05/25 07:21:56;;;;;;;43.30;24.25;;;16.20;99.90;;;;;;4823603;29;20034;-75
2021/05/25 07:24:22;;;;;;;42.47;22.33;;;16.20;99.90;;;;;;4823455;29;20042;-76
2021/05/25 07:26:48;;;;;;;46.15;25.67;;;16.20;99.90;;;;;;4807844;29;20034;-75
2021/05/25 07:29:14;;;;;;;42.75;22.15;;;16.20;99.90;;;;;;4824179;29;20083;-75
2021/05/25 07:31:40;;;;;;;40.58;23.33;;;16.30;99.90;;;;;;4823312;29;20023;-75
2021/05/25 07:34:05;;;;;;;43.92;23.77;;;16.30;99.90;;;;;;4823094;29;20504;-75
2021/05/25 07:36:31;;;;;;;41.80;22.88;;;16.40;99.90;;;;;;4822742;29;20038;-75
2021/05/25 07:38:57;;;;;;;38.58;20.70;;;16.40;99.90;;;;;;4822679;29;20079;-76
2021/05/25 07:41:23;;;;;;;40.75;22.10;;;16.30;99.90;;;;;;4823503;29;20030;-75
2021/05/25 07:43:49;;;;;;;39.47;21.67;;;16.30;99.90;;;;;;4823552;29;20029;-75
2021/05/25 07:46:17;;;;;;;38.83;22.30;;;16.30;99.90;;;;;;4823179;29;20023;-76
2021/05/25 07:48:43;;;;;;;41.88;22.40;;;16.30;99.90;;;;;;4822916;29;20021;-75
2021/05/25 07:51:09;;;;;;;40.58;21.90;;;16.20;99.90;;;;;;4824154;29;20413;-75
2021/05/25 07:53:35;;;;;;;40.95;22.35;;;16.20;99.90;;;;;;4826241;29;20048;-75
2021/05/25 07:56:01;;;;;;;41.78;24.02;;;16.20;99.90;;;;;;4809723;29;20038;-76
2021/05/25 07:58:27;;;;;;;43.75;23.95;;;16.20;99.90;;;;;;4818694;29;20047;-75
2021/05/25 08:01:02;;;;;;;38.15;20.48;;;16.30;99.90;;;;;;4825206;29;20493;-76
2021/05/25 08:03:28;;;;;;;39.20;22.25;;;16.30;99.90;;;;;;4825470;29;20113;-76
2021/05/25 08:05:54;;;;;;;25.67;15.73;;;16.40;99.90;;;;;;4826588;29;20515;-75
2021/05/25 08:08:20;;;;;;;24.42;14.13;;;16.50;99.90;;;;;;4803329;29;20019;-75
2021/05/25 08:10:46;;;;;;;36.25;19.02;;;16.50;99.90;;;;;;4811551;29;20033;-75
2021/05/25 08:13:12;;;;;;;40.65;22.77;;;16.60;99.90;;;;;;4821098;29;20490;-76
2021/05/25 08:15:40;;;;;;;38.30;20.45;;;16.70;99.90;;;;;;4821784;29;20065;-76
2021/05/25 08:20:38;;;;;;;32.70;19.88;;;16.80;99.90;;;;;;4821186;29;20026;-76
2021/05/25 08:23:09;;;;;;;37.20;19.85;;;16.90;99.90;;;;;;4821325;29;20389;-76
2021/05/25 08:25:36;;;;;;;38.30;20.70;;;17.00;99.90;;;;;;4805399;29;20042;-76
2021/05/25 08:28:05;;;;;;;34.80;19.83;;;16.90;99.90;;;;;;4804508;29;20038;-76
2021/05/25 08:30:33;;;;;;;33.30;17.75;;;16.90;99.90;;;;;;4820952;29;20030;-76
2021/05/25 08:32:59;;;;;;;31.33;17.58;;;17.00;99.90;;;;;;4821502;29;20060;-76
2021/05/25 08:35:29;;;;;;;33.50;17.70;;;17.10;99.90;;;;;;4817665;29;20068;-76
2021/05/25 08:37:57;;;;;;;26.75;17.02;;;17.10;99.90;;;;;;4820654;29;20029;-76
2021/05/25 08:40:24;;;;;;;24.42;14.90;;;17.10;99.90;;;;;;4821694;29;20033;-76
2021/05/25 08:42:51;;;;;;;30.60;15.73;;;17.10;99.90;;;;;;4820626;29;20366;-77
2021/05/25 08:45:18;;;;;;;30.60;17.27;;;17.10;99.90;;;;;;4820497;29;20030;-77
2021/05/25 08:47:45;;;;;;;27.73;16.05;;;17.10;99.90;;;;;;4804639;29;20035;-77
2021/05/25 08:50:13;;;;;;;26.35;16.40;;;17.20;99.90;;;;;;4804981;29;20051;-76
2021/05/25 08:52:39;;;;;;;29.23;17.80;;;17.10;99.90;;;;;;4790443;29;20030;-79
2021/05/25 08:55:07;;;;;;;26.88;17.20;;;17.20;99.90;;;;;;4805400;29;20026;-78
2021/05/25 08:57:33;;;;;;;28.58;16.20;;;17.20;99.90;;;;;;4806717;29;20168;-77
2021/05/25 08:59:59;;;;;;;28.70;16.50;;;17.20;99.90;;;;;;4806425;29;20031;-77
2021/05/25 09:02:25;;;;;;;29.25;15.55;;;17.30;99.90;;;;;;4817965;29;20030;-78
2021/05/25 09:05:00;;;;;;;23.98;15.13;;;17.40;99.90;;;;;;4820089;29;20052;-79
2021/05/25 09:07:53;;;;;;;25.48;14.55;;;17.50;99.90;;;;;;4820223;29;20092;-79
2021/05/25 09:10:19;;;;;;;27.45;14.73;;;17.60;99.90;;;;;;4804612;29;20043;-79
2021/05/25 09:12:55;;;;;;;27.48;15.35;;;17.60;99.90;;;;;;4803411;29;20245;-76
2021/05/25 09:15:38;;;;;;;30.50;15.95;;;17.80;99.90;;;;;;4801250;29;20030;-75
2021/05/25 09:18:12;;;;;;;20.13;11.82;;;17.80;99.90;;;;;;4802212;29;20113;-75
2021/05/25 09:21:01;;;;;;;16.15;9.57;;;17.80;99.90;;;;;;4811146;29;20279;-77
2021/05/25 09:23:36;;;;;;;14.20;9.38;;;17.80;99.90;;;;;;4819109;29;20031;-78
2021/05/25 09:26:10;;;;;;;13.82;9.15;;;17.80;99.90;;;;;;4815085;29;20034;-77
2021/05/25 09:28:52;;;;;;;12.52;6.97;;;17.90;99.90;;;;;;4814893;29;20023;-77
2021/05/25 09:31:25;;;;;;;8.20;6.75;;;18.00;99.90;;;;;;4801641;29;20699;-77
2021/05/25 09:34:12;;;;;;;10.18;6.80;;;18.00;99.90;;;;;;4801360;29;20386;-77
2021/05/25 09:37:04;;;;;;;11.48;6.90;;;18.00;99.90;;;;;;4802450;29;20030;-77
2021/05/25 09:39:52;;;;;;;10.77;7.03;;;18.10;99.90;;;;;;4801383;29;20037;-77
2021/05/25 09:42:18;;;;;;;10.93;8.02;;;18.20;99.90;;;;;;4801323;29;20058;-77
2021/05/25 09:45:01;;;;;;;11.07;7.80;;;18.30;99.90;;;;;;4799882;29;20375;-77
2021/05/25 09:47:41;;;;;;;11.90;8.43;;;18.40;99.90;;;;;;4801294;29;20398;-77
2021/05/25 09:50:09;;;;;;;12.73;7.90;;;18.50;99.90;;;;;;4801191;29;20035;-77
2021/05/25 09:52:35;;;;;;;14.85;8.30;;;18.60;99.90;;;;;;4801694;29;20454;-77
2021/05/25 09:55:10;;;;;;;13.52;8.55;;;18.70;99.90;;;;;;4785354;29;20038;-77
2021/05/25 09:57:56;;;;;;;15.45;9.85;;;18.60;99.90;;;;;;4801279;29;20030;-77
2021/05/25 10:03:18;;;;;;;10.13;7.80;;;18.70;99.90;;;;;;4815726;29;20566;-78
2021/05/25 10:05:54;;;;;;;12.68;8.75;;;18.60;99.90;;;;;;4785302;29;20386;-78
2021/05/25 10:08:23;;;;;;;11.00;8.57;;;18.70;99.90;;;;;;4787642;29;20431;-79
2021/05/25 10:10:51;;;;;;;12.25;8.60;;;18.70;99.90;;;;;;4819322;29;20031;-77
2021/05/25 10:13:18;;;;;;;12.45;9.60;;;18.80;99.90;;;;;;4818504;29;20451;-77
2021/05/25 10:15:48;;;;;;;16.02;9.70;;;18.80;99.90;;;;;;4803537;29;20478;-77
2021/05/25 10:21:14;;;;;;;13.60;10.35;;;18.90;99.90;;;;;;4801966;29;20034;-78
2021/05/25 10:23:43;;;;;;;12.68;10.07;;;18.90;99.90;;;;;;4822549;29;20030;-78
2021/05/25 10:26:16;;;;;;;10.30;8.55;;;19.00;99.90;;;;;;4818570;29;20021;-78
2021/05/25 10:28:50;;;;;;;11.52;8.82;;;19.10;99.90;;;;;;4807699;29;20365;-76
2021/05/25 10:31:35;;;;;;;12.75;9.02;;;19.00;99.90;;;;;;4823969;29;20030;-77
2021/05/25 10:34:19;;;;;;;15.18;9.38;;;19.20;99.90;;;;;;4823873;29;20035;-77
2021/05/25 10:36:59;;;;;;;15.90;10.05;;;19.30;99.90;;;;;;4824344;29;20504;-77
2021/05/25 10:39:28;;;;;;;18.00;10.45;;;19.30;99.90;;;;;;4807235;29;20034;-77
2021/05/25 10:42:21;;;;;;;15.32;10.25;;;19.50;99.90;;;;;;4814567;29;20119;-77
2021/05/25 10:44:56;;;;;;;17.10;11.25;;;19.70;99.90;;;;;;4806588;29;20070;-77
2021/05/25 10:47:28;;;;;;;18.10;11.25;;;19.70;99.90;;;;;;4823191;29;20061;-77
2021/05/25 10:53:01;;;;;;;14.05;10.35;;;19.80;99.90;;;;;;4798293;29;20506;-77
2021/05/25 10:55:31;;;;;;;13.10;10.05;;;19.90;99.90;;;;;;4806459;29;20523;-77
2021/05/25 10:57:58;;;;;;;17.25;11.10;;;19.90;99.90;;;;;;4824122;29;20241;-77
2021/05/25 11:00:26;;;;;;;15.25;11.18;;;19.70;99.90;;;;;;4837179;29;20136;-77
2021/05/25 11:02:52;;;;;;;15.50;11.32;;;19.80;99.90;;;;;;4836368;29;20026;-78
2021/05/25 11:05:30;;;;;;;12.63;9.65;;;20.00;99.90;;;;;;4837449;29;20416;-77
2021/05/25 11:08:12;;;;;;;15.38;10.40;;;20.00;99.90;;;;;;4821700;29;20389;-77
2021/05/25 11:10:39;;;;;;;14.25;10.32;;;20.10;99.90;;;;;;4813564;29;20393;-77
2021/05/25 11:13:17;;;;;;;16.50;10.57;;;20.20;99.90;;;;;;4803672;29;20383;-78
2021/05/25 11:16:19;;;;;;;15.75;11.45;;;20.30;99.60;;;;;;4819808;29;20030;-77
2021/05/25 11:19:10;;;;;;;14.07;11.93;;;20.30;99.80;;;;;;4820666;29;20026;-77
2021/05/25 11:24:27;;;;;;;16.13;11.80;;;20.60;99.30;;;;;;4822449;29;20034;-77
2021/05/25 11:27:16;;;;;;;19.42;12.95;;;20.60;98.50;;;;;;4809371;29;20045;-77
2021/05/25 11:29:50;;;;;;;16.10;11.65;;;20.70;99.40;;;;;;4826248;29;20034;-77
2021/05/25 11:32:24;;;;;;;14.45;10.50;;;20.90;99.00;;;;;;4826118;29;20019;-77
2021/05/25 11:34:59;;;;;;;14.15;10.15;;;21.10;98.80;;;;;;4826102;29;20176;-77
2021/05/25 11:37:25;;;;;;;12.30;9.05;;;21.00;98.70;;;;;;4826169;29;20035;-77
2021/05/25 11:39:52;;;;;;;14.75;10.00;;;21.00;99.20;;;;;;4809533;29;20082;-77
2021/05/25 11:42:24;;;;;;;13.05;10.23;;;20.90;98.80;;;;;;4809550;29;20030;-77
2021/05/25 11:44:51;;;;;;;13.02;9.18;;;20.80;98.50;;;;;;4825648;29;20109;-77
2021/05/25 11:47:17;;;;;;;12.15;9.60;;;20.80;98.10;;;;;;4809759;29;20031;-77
2021/05/25 11:49:44;;;;;;;11.27;9.13;;;20.70;97.60;;;;;;4809269;29;20516;-77
2021/05/25 11:52:39;;;;;;;14.98;10.02;;;20.60;98.00;;;;;;4825805;29;20509;-77
2021/05/25 11:55:10;;;;;;;11.93;9.88;;;20.60;97.80;;;;;;4823946;29;20045;-77
2021/05/25 11:57:43;;;;;;;13.38;9.43;;;20.90;97.80;;;;;;4826971;29;20094;-77
2021/05/25 12:00:12;;;;;;;12.68;9.63;;;21.10;98.30;;;;;;4824382;29;20534;-77
2021/05/25 12:02:39;;;;;;;13.07;9.75;;;21.40;97.50;;;;;;4823534;29;20041;-77
2021/05/25 12:05:26;;;;;;;11.10;8.63;;;21.50;96.90;;;;;;4807927;29;20061;-77
2021/05/25 12:07:54;;;;;;;15.75;8.48;;;21.70;96.50;;;;;;4824948;29;20109;-78
2021/05/25 12:10:24;;;;;;;11.70;9.05;;;21.90;97.00;;;;;;4824759;29;20042;-78
2021/05/25 12:12:51;;;;;;;13.93;10.63;;;22.00;96.00;;;;;;4824836;29;20037;-77
2021/05/25 12:15:23;;;;;;;12.20;9.18;;;22.10;94.40;;;;;;4823876;29;20037;-78
2021/05/25 12:17:59;;;;;;;11.18;9.30;;;22.20;95.00;;;;;;4825446;29;20030;-78
2021/05/25 12:20:43;;;;;;;14.35;9.80;;;22.30;94.80;;;;;;4808945;29;20038;-78
2021/05/25 12:23:19;;;;;;;10.32;8.93;;;22.30;92.50;;;;;;4825053;29;20039;-78
2021/05/25 12:25:50;;;;;;;14.45;9.35;;;22.40;93.00;;;;;;4825032;29;20276;-78
2021/05/25 12:28:20;;;;;;;10.80;9.27;;;22.40;93.80;;;;;;4825061;29;20167;-78
2021/05/25 12:30:50;;;;;;;11.60;9.02;;;22.50;93.30;;;;;;4825236;29;20030;-78
2021/05/25 12:33:29;;;;;;;11.70;9.00;;;22.60;92.60;;;;;;4824699;29;20027;-78
2021/05/25 12:36:17;;;;;;;14.10;8.40;;;22.60;91.40;;;;;;4823201;29;20026;-78
2021/05/25 12:39:05;;;;;;;10.07;8.30;;;22.70;91.50;;;;;;4830750;29;20034;-77
2021/05/25 12:41:40;;;;;;;10.80;8.10;;;22.60;90.60;;;;;;4825337;29;20443;-78
2021/05/25 12:44:10;;;;;;;10.50;7.75;;;22.90;90.40;;;;;;4804858;29;20038;-78
2021/05/25 12:47:05;;;;;;;10.18;7.72;;;23.00;90.80;;;;;;4804168;29;20057;-78
2021/05/25 12:49:35;;;;;;;7.97;6.93;;;23.30;90.00;;;;;;4820775;29;20042;-78
2021/05/25 12:52:26;;;;;;;6.97;6.28;;;23.30;86.50;;;;;;4820908;29;20032;-78
2021/05/25 12:55:00;;;;;;;10.52;7.10;;;23.30;85.50;;;;;;4803908;29;20056;-78
2021/05/25 12:57:48;;;;;;;13.98;9.05;;;23.40;84.20;;;;;;4820436;29;20029;-78
2021/05/25 13:00:16;;;;;;;10.80;7.60;;;23.50;82.60;;;;;;4824465;29;20053;-78
2021/05/25 13:02:49;;;;;;;12.68;8.20;;;23.50;84.30;;;;;;4824792;29;20497;-78
2021/05/25 13:05:16;;;;;;;9.35;7.25;;;23.50;84.70;;;;;;4824593;29;20034;-78
2021/05/25 13:10:36;;;;;;;8.85;6.78;;;23.80;82.10;;;;;;4824560;29;20054;-78
2021/05/25 13:13:35;;;;;;;11.25;7.18;;;23.90;83.20;;;;;;4824440;29;20025;-78
2021/05/25 13:16:01;;;;;;;10.80;6.35;;;24.10;78.90;;;;;;4824408;29;20562;-78
2021/05/25 13:18:44;;;;;;;7.47;6.18;;;24.20;79.40;;;;;;4834125;29;20105;-78
2021/05/25 13:21:16;;;;;;;6.50;5.15;;;24.20;77.10;;;;;;4838980;29;20061;-78
2021/05/25 13:23:53;;;;;;;8.98;6.88;;;24.20;78.90;;;;;;4838657;29;20326;-77
2021/05/25 13:26:32;;;;;;;10.40;5.85;;;24.10;74.50;;;;;;4838834;29;20030;-78
2021/05/25 13:29:13;;;;;;;6.53;5.72;;;24.10;73.70;;;;;;4821931;29;20091;-78
2021/05/25 13:31:40;;;;;;;6.03;5.05;;;24.10;72.50;;;;;;4838938;29;20025;-78
2021/05/25 13:34:08;;;;;;;6.32;4.55;;;24.10;72.10;;;;;;4836722;29;20113;-78
2021/05/25 13:36:36;;;;;;;4.25;3.85;;;24.10;71.80;;;;;;4838241;29;20049;-78
2021/05/25 13:39:03;;;;;;;5.32;4.30;;;24.40;73.20;;;;;;4842535;29;20044;-76
2021/05/25 13:41:29;;;;;;;5.55;4.35;;;24.50;69.30;;;;;;4828632;29;20031;-76
2021/05/25 13:43:55;;;;;;;5.10;3.45;;;24.70;70.00;;;;;;4822175;29;20114;-76
2021/05/25 13:46:25;;;;;;;5.05;4.13;;;24.90;69.80;;;;;;4819933;29;20027;-76
2021/05/25 13:48:52;;;;;;;3.80;3.50;;;24.80;65.20;;;;;;4816289;29;20065;-75
2021/05/25 13:51:18;;;;;;;4.30;3.88;;;24.70;62.20;;;;;;4821394;29;20103;-75
2021/05/25 13:53:44;;;;;;;3.55;3.10;;;24.70;61.30;;;;;;4837768;29;20033;-75
2021/05/25 13:56:15;;;;;;;3.92;3.53;;;24.60;62.40;;;;;;4822267;29;20074;-75
2021/05/25 13:58:41;;;;;;;4.90;4.03;;;24.60;60.40;;;;;;4838725;29;20030;-76
2021/05/25 14:03:49;;;;;;;5.05;3.20;;;24.60;59.70;;;;;;4839353;29;20120;-76
2021/05/25 14:06:19;;;;;;;5.93;3.83;;;24.90;63.20;;;;;;4838052;29;20113;-76
2021/05/25 14:08:45;;;;;;;8.40;3.90;;;25.00;60.20;;;;;;4839816;29;20418;-76
2021/05/25 14:11:14;;;;;;;3.08;2.72;;;25.00;61.30;;;;;;4828836;29;20054;-76